createdAt,value
2022-10-17T00:01:15.586Z,17.80
2022-10-17T00:03:43.293Z,17.80
2022-10-17T00:06:15.800Z,17.70
2022-10-17T00:08:48.458Z,17.80
2022-10-17T00:11:19.403Z,17.80
2022-10-17T00:13:51.899Z,17.70
2022-10-17T00:16:31.468Z,17.70
2022-10-17T00:19:00.817Z,17.70
2022-10-17T00:21:28.056Z,17.70
2022-10-17T00:23:55.783Z,17.60
2022-10-17T00:26:23.393Z,17.70
2022-10-17T00:28:52.633Z,17.60
2022-10-17T00:31:23.889Z,17.60
2022-10-17T00:33:52.799Z,17.60
2022-10-17T00:36:22.892Z,17.60
2022-10-17T00:38:57.566Z,17.60
2022-10-17T00:41:31.002Z,17.60
2022-10-17T00:44:00.564Z,17.50
2022-10-17T00:46:31.094Z,17.40
2022-10-17T00:49:05.114Z,17.50
2022-10-17T00:51:41.737Z,17.60
2022-10-17T00:54:10.902Z,17.70
2022-10-17T00:56:40.393Z,17.80
2022-10-17T00:59:10.926Z,17.90
2022-10-17T01:01:40.017Z,18.00
2022-10-17T01:04:07.374Z,18.10
2022-10-17T01:06:34.627Z,18.10
2022-10-17T01:09:04.372Z,18.10
2022-10-17T01:11:49.694Z,18.10
2022-10-17T01:14:29.074Z,18.10
2022-10-17T01:17:01.102Z,18.10
2022-10-17T01:19:59.658Z,18.10
2022-10-17T01:22:42.553Z,18.20
2022-10-17T01:25:27.675Z,18.20
2022-10-17T01:28:21.930Z,18.10
2022-10-17T01:31:10.496Z,18.20
2022-10-17T01:34:12.341Z,18.10
2022-10-17T01:36:55.419Z,18.10
2022-10-17T01:39:55.228Z,18.10
2022-10-17T01:42:28.447Z,18.10
2022-10-17T01:44:57.631Z,18.10
2022-10-17T01:47:33.658Z,18.20
2022-10-17T01:50:22.132Z,18.10
2022-10-17T01:52:55.549Z,18.10
2022-10-17T01:55:28.943Z,18.00
2022-10-17T01:58:00.998Z,18.00
2022-10-17T02:00:30.933Z,18.10
2022-10-17T02:03:06.985Z,18.10
2022-10-17T02:05:42.568Z,18.10
2022-10-17T02:08:10.868Z,18.10
2022-10-17T02:10:46.576Z,18.20
2022-10-17T02:13:46.268Z,18.20
2022-10-17T02:16:14.203Z,18.10
2022-10-17T02:19:20.244Z,18.20
2022-10-17T02:22:12.518Z,18.20
2022-10-17T02:25:29.294Z,18.30
2022-10-17T02:28:05.200Z,18.30
2022-10-17T02:30:56.524Z,18.30
2022-10-17T02:33:31.469Z,18.30
2022-10-17T02:36:06.287Z,18.30
2022-10-17T02:38:35.198Z,18.40
2022-10-17T02:41:03.698Z,18.40
2022-10-17T02:43:31.210Z,18.40
2022-10-17T02:45:58.788Z,18.50
2022-10-17T02:48:38.772Z,18.50
2022-10-17T02:51:35.429Z,18.50
2022-10-17T02:54:42.403Z,18.50
2022-10-17T02:57:19.348Z,18.50
2022-10-17T02:59:48.049Z,18.50
2022-10-17T03:02:18.128Z,18.50
2022-10-17T03:04:47.861Z,18.70
2022-10-17T03:07:15.151Z,18.70
2022-10-17T03:09:42.845Z,18.60
2022-10-17T03:12:10.062Z,18.70
2022-10-17T03:14:37.706Z,18.70
2022-10-17T03:17:05.409Z,18.70
2022-10-17T03:19:32.754Z,18.70
2022-10-17T03:22:00.385Z,18.80
2022-10-17T03:24:27.549Z,18.80
2022-10-17T03:26:54.838Z,18.80
2022-10-17T03:29:22.576Z,18.80
2022-10-17T03:31:49.757Z,18.70
2022-10-17T03:34:18.738Z,18.80
2022-10-17T03:36:46.651Z,18.90
2022-10-17T03:39:14.166Z,18.90
2022-10-17T03:41:41.331Z,18.90
2022-10-17T03:44:11.230Z,18.90
2022-10-17T03:46:38.754Z,18.90
2022-10-17T03:49:05.967Z,18.90
2022-10-17T03:51:34.999Z,18.90
2022-10-17T03:54:02.643Z,19.00
2022-10-17T03:56:30.360Z,19.00
2022-10-17T03:58:57.836Z,18.90
2022-10-17T04:01:25.156Z,18.90
2022-10-17T04:03:54.311Z,18.90
2022-10-17T04:06:22.499Z,18.90
2022-10-17T04:08:52.382Z,18.90
2022-10-17T04:11:23.062Z,18.40
2022-10-17T04:13:55.507Z,17.90
2022-10-17T04:16:23.749Z,17.90
2022-10-17T04:18:55.767Z,17.90
2022-10-17T04:21:26.441Z,18.20
2022-10-17T04:23:58.525Z,18.60
2022-10-17T04:26:26.444Z,18.80
2022-10-17T04:28:53.681Z,18.90
2022-10-17T04:31:23.402Z,19.00
2022-10-17T04:33:51.016Z,19.00
2022-10-17T04:36:19.889Z,19.10
2022-10-17T04:38:49.810Z,19.10
2022-10-17T04:41:18.785Z,19.10
2022-10-17T04:43:51.081Z,19.10
2022-10-17T04:46:21.896Z,19.10
2022-10-17T04:48:52.290Z,19.10
2022-10-17T04:51:24.550Z,19.10
2022-10-17T04:53:53.903Z,19.10
2022-10-17T04:56:26.829Z,19.10
2022-10-17T04:58:54.105Z,19.10
2022-10-17T05:01:25.644Z,19.10
2022-10-17T05:03:56.160Z,19.10
2022-10-17T05:06:28.372Z,19.10
2022-10-17T05:08:57.896Z,19.10
2022-10-17T05:11:29.469Z,19.10
2022-10-17T05:14:01.525Z,19.20
2022-10-17T05:16:32.815Z,19.20
2022-10-17T05:19:00.708Z,19.20
2022-10-17T05:21:29.313Z,19.30
2022-10-17T05:23:57.429Z,19.30
2022-10-17T05:26:27.866Z,19.30
2022-10-17T05:28:55.097Z,19.30
2022-10-17T05:31:22.491Z,19.30
2022-10-17T05:33:50.236Z,19.30
2022-10-17T05:36:17.990Z,19.30
2022-10-17T05:38:50.166Z,19.30
2022-10-17T05:41:18.389Z,19.30
2022-10-17T05:43:48.681Z,19.40
2022-10-17T05:46:15.981Z,19.40
2022-10-17T05:48:43.183Z,19.40
2022-10-17T05:51:11.060Z,19.40
2022-10-17T05:53:40.944Z,19.30
2022-10-17T05:56:11.435Z,19.30
2022-10-17T05:58:50.328Z,19.30
2022-10-17T06:01:18.733Z,19.30
2022-10-17T06:03:45.962Z,19.20
2022-10-17T06:06:19.749Z,19.30
2022-10-17T06:08:50.185Z,19.20
2022-10-17T06:11:17.403Z,19.20
2022-10-17T06:13:44.597Z,19.20
2022-10-17T06:16:12.432Z,19.30
2022-10-17T06:18:42.304Z,19.30
2022-10-17T06:21:11.828Z,19.30
2022-10-17T06:23:40.434Z,19.30
2022-10-17T06:26:07.971Z,19.30
2022-10-17T06:28:38.313Z,19.40
2022-10-17T06:31:09.829Z,19.30
2022-10-17T06:33:37.802Z,19.30
2022-10-17T06:36:06.849Z,19.30
2022-10-17T06:38:35.799Z,19.40
2022-10-17T06:41:14.146Z,19.40
2022-10-17T06:43:46.395Z,19.30
2022-10-17T06:46:15.884Z,19.40
2022-10-17T06:48:43.312Z,19.40
2022-10-17T06:51:11.504Z,19.40
2022-10-17T06:53:41.552Z,19.40
2022-10-17T06:56:10.252Z,19.40
2022-10-17T06:58:39.613Z,19.40
2022-10-17T07:01:12.188Z,19.40
2022-10-17T07:03:43.692Z,19.40
2022-10-17T07:06:11.340Z,19.40
2022-10-17T07:08:42.563Z,19.40
2022-10-17T07:11:15.395Z,19.40
2022-10-17T07:13:43.375Z,19.40
2022-10-17T07:16:13.901Z,19.50
2022-10-17T07:18:48.166Z,19.50
2022-10-17T07:21:15.827Z,19.50
2022-10-17T07:23:43.026Z,19.60
2022-10-17T07:26:14.650Z,19.50
2022-10-17T07:28:44.846Z,19.60
2022-10-17T07:31:16.919Z,19.60
2022-10-17T07:36:18.029Z,19.60
2022-10-17T07:38:46.064Z,19.50
2022-10-17T07:41:17.802Z,19.60
2022-10-17T07:43:50.756Z,19.60
2022-10-17T07:46:20.117Z,19.60
2022-10-17T07:48:50.465Z,19.60
2022-10-17T07:51:18.466Z,19.70
2022-10-17T07:53:48.783Z,19.70
2022-10-17T07:56:18.987Z,19.60
2022-10-17T07:58:48.213Z,19.60
2022-10-17T08:01:16.352Z,19.60
2022-10-17T08:03:45.372Z,19.60
2022-10-17T08:06:16.080Z,19.60
2022-10-17T08:08:44.207Z,19.50
2022-10-17T08:11:14.171Z,19.40
2022-10-17T08:13:42.389Z,19.40
2022-10-17T08:16:13.249Z,19.30
2022-10-17T08:18:46.468Z,19.40
2022-10-17T08:21:14.722Z,19.50
2022-10-17T08:23:42.316Z,19.60
2022-10-17T08:26:13.424Z,19.70
2022-10-17T08:28:42.293Z,19.70
2022-10-17T08:31:24.043Z,19.60
2022-10-17T08:33:51.592Z,19.60
2022-10-17T08:36:20.516Z,19.60
2022-10-17T08:38:52.848Z,19.50
2022-10-17T08:41:29.956Z,19.50
2022-10-17T08:44:11.805Z,19.30
2022-10-17T08:46:42.401Z,19.30
2022-10-17T08:49:25.908Z,19.40
2022-10-17T08:52:11.775Z,19.40
2022-10-17T08:54:46.213Z,19.50
2022-10-17T08:57:17.598Z,19.50
2022-10-17T08:59:50.129Z,19.60
2022-10-17T09:02:41.636Z,19.80
2022-10-17T09:05:49.305Z,19.80
2022-10-17T09:08:41.398Z,19.90
2022-10-17T09:11:39.207Z,20.00
2022-10-17T09:14:26.837Z,19.90
2022-10-17T09:17:16.360Z,19.90
2022-10-17T09:20:11.842Z,19.80
2022-10-17T09:22:52.197Z,19.80
2022-10-17T09:25:21.337Z,20.00
2022-10-17T09:28:14.898Z,20.00
2022-10-17T09:31:05.938Z,20.00
2022-10-17T09:33:59.708Z,20.00
2022-10-17T09:36:35.560Z,20.10
2022-10-17T09:39:15.236Z,20.20
2022-10-17T09:41:54.228Z,20.20
2022-10-17T09:44:28.375Z,20.30
2022-10-17T09:47:04.491Z,20.30
2022-10-17T09:49:42.720Z,20.30
2022-10-17T09:52:20.525Z,20.30
2022-10-17T09:54:50.817Z,20.20
2022-10-17T09:57:20.770Z,20.30
2022-10-17T10:00:03.132Z,20.30
2022-10-17T10:02:36.498Z,20.20
2022-10-17T10:05:20.009Z,20.30
2022-10-17T10:08:04.228Z,20.20
2022-10-17T10:10:32.178Z,20.20
2022-10-17T10:13:26.351Z,20.10
2022-10-17T10:15:53.854Z,20.00
2022-10-17T10:18:32.833Z,20.10
2022-10-17T10:21:05.640Z,20.00
2022-10-17T10:23:33.918Z,19.90
2022-10-17T10:26:26.503Z,19.90
2022-10-17T10:29:20.120Z,19.80
2022-10-17T10:31:48.941Z,19.90
2022-10-17T10:34:24.766Z,19.90
2022-10-17T10:37:17.064Z,19.90
2022-10-17T10:40:18.026Z,20.00
2022-10-17T10:42:51.921Z,20.10
2022-10-17T10:45:48.063Z,20.10
2022-10-17T10:48:27.734Z,20.10
2022-10-17T10:51:16.468Z,20.20
2022-10-17T10:54:19.352Z,20.30
2022-10-17T10:56:52.597Z,20.40
2022-10-17T10:59:33.268Z,20.40
2022-10-17T11:02:26.601Z,20.40
2022-10-17T11:04:59.824Z,20.50
2022-10-17T11:07:43.766Z,20.40
2022-10-17T11:10:51.920Z,20.40
2022-10-17T11:13:31.740Z,20.30
2022-10-17T11:16:12.796Z,20.30
2022-10-17T11:18:55.025Z,20.30
2022-10-17T11:22:00.695Z,20.30
2022-10-17T11:24:56.979Z,20.30
2022-10-17T11:27:26.414Z,20.30
2022-10-17T11:29:53.739Z,20.20
2022-10-17T11:32:31.517Z,20.30
2022-10-17T11:35:04.417Z,20.30
2022-10-17T11:37:39.515Z,20.30
2022-10-17T11:40:31.494Z,20.40
2022-10-17T11:43:31.007Z,20.40
2022-10-17T11:46:26.969Z,20.40
2022-10-17T11:49:17.406Z,20.30
2022-10-17T11:52:56.146Z,20.30
2022-10-17T11:55:36.682Z,20.30
2022-10-17T11:58:21.934Z,20.20
2022-10-17T12:01:04.248Z,20.20
2022-10-17T12:03:51.850Z,20.20
2022-10-17T12:06:48.965Z,20.10
2022-10-17T12:09:37.585Z,20.10
2022-10-17T12:12:05.929Z,20.20
2022-10-17T12:14:37.434Z,20.20
2022-10-17T12:17:20.446Z,20.20
2022-10-17T12:19:50.038Z,20.20
2022-10-17T12:22:26.145Z,20.20
2022-10-17T12:25:04.050Z,20.10
2022-10-17T12:27:46.070Z,20.10
2022-10-17T12:30:16.599Z,19.90
2022-10-17T12:33:11.466Z,20.00
2022-10-17T12:35:41.768Z,20.00
2022-10-17T12:38:18.256Z,20.00
2022-10-17T12:40:50.838Z,20.00
2022-10-17T12:43:20.798Z,20.00
2022-10-17T12:45:57.744Z,20.00
2022-10-17T12:48:45.491Z,19.90
2022-10-17T12:51:35.315Z,19.90
2022-10-17T12:54:15.363Z,19.90
2022-10-17T12:56:46.544Z,19.90
2022-10-17T12:59:28.130Z,19.90
2022-10-17T13:01:59.568Z,19.90
2022-10-17T13:04:30.611Z,20.00
2022-10-17T13:07:02.065Z,20.00
2022-10-17T13:09:37.448Z,20.10
2022-10-17T13:12:15.866Z,20.20
2022-10-17T13:14:46.705Z,20.20
2022-10-17T13:17:26.902Z,20.30
2022-10-17T13:19:57.385Z,20.30
2022-10-17T13:22:27.395Z,20.40
2022-10-17T13:25:14.401Z,20.30
2022-10-17T13:27:42.546Z,20.30
2022-10-17T13:30:47.355Z,20.40
2022-10-17T13:33:28.997Z,20.50
2022-10-17T13:36:00.578Z,20.50
2022-10-17T13:38:32.494Z,20.50
2022-10-17T13:41:30.041Z,20.60
2022-10-17T13:43:50.759Z,20.70
2022-10-17T13:46:46.574Z,20.70
2022-10-17T13:49:28.145Z,20.70
2022-10-17T13:51:58.219Z,20.60
2022-10-17T13:54:39.567Z,20.50
2022-10-17T13:57:23.131Z,20.60
2022-10-17T13:59:57.054Z,20.70
2022-10-17T14:02:29.125Z,20.70
2022-10-17T14:05:17.345Z,20.80
2022-10-17T14:08:11.994Z,20.70
2022-10-17T14:10:42.765Z,20.70
2022-10-17T14:13:29.414Z,20.70
2022-10-17T14:16:01.274Z,20.70
2022-10-17T14:18:35.933Z,20.70
2022-10-17T14:21:40.491Z,20.60
2022-10-17T14:24:11.492Z,20.60
2022-10-17T14:26:54.035Z,20.60
2022-10-17T14:29:30.026Z,20.50
2022-10-17T14:32:08.534Z,20.60
2022-10-17T14:34:38.917Z,20.60
2022-10-17T14:37:24.992Z,20.70
2022-10-17T14:39:55.162Z,20.60
2022-10-17T14:42:23.475Z,20.60
2022-10-17T14:44:56.991Z,20.60
2022-10-17T14:50:16.817Z,20.70
2022-10-17T14:53:13.659Z,20.70
2022-10-17T14:55:55.411Z,20.70
2022-10-17T14:58:31.676Z,20.70
2022-10-17T15:01:02.514Z,20.80
2022-10-17T15:03:29.772Z,20.90
2022-10-17T15:06:09.302Z,21.00
2022-10-17T15:08:39.155Z,20.90
2022-10-17T15:11:06.823Z,20.90
2022-10-17T15:13:43.288Z,20.80
2022-10-17T15:16:20.164Z,20.90
2022-10-17T15:18:48.293Z,20.80
2022-10-17T15:21:33.310Z,20.90
2022-10-17T15:24:07.883Z,20.90
2022-10-17T15:26:35.901Z,20.80
2022-10-17T15:29:04.135Z,20.80
2022-10-17T15:31:34.037Z,20.80
2022-10-17T15:34:03.943Z,20.70
2022-10-17T15:36:39.434Z,20.70
2022-10-17T15:39:09.816Z,20.60
2022-10-17T15:41:37.044Z,20.60
2022-10-17T15:44:06.835Z,20.60
2022-10-17T15:46:35.430Z,20.60
2022-10-17T15:49:07.563Z,20.60
2022-10-17T15:51:37.420Z,20.60
2022-10-17T15:54:05.763Z,20.60
2022-10-17T15:56:40.189Z,20.50
2022-10-17T15:59:20.241Z,20.50
2022-10-17T16:01:48.687Z,20.50
2022-10-17T16:04:16.107Z,20.50
2022-10-17T16:06:43.858Z,20.50
2022-10-17T16:09:11.385Z,20.50
2022-10-17T16:11:42.125Z,20.60
2022-10-17T16:14:14.856Z,20.50
2022-10-17T16:16:42.365Z,20.50
2022-10-17T16:19:10.110Z,20.40
2022-10-17T16:21:39.794Z,20.40
2022-10-17T16:24:10.042Z,20.50
2022-10-17T16:26:37.711Z,20.50
2022-10-17T16:29:09.287Z,20.50
2022-10-17T16:31:40.344Z,20.50
2022-10-17T16:34:08.932Z,20.40
2022-10-17T16:36:36.603Z,20.40
2022-10-17T16:39:03.958Z,20.40
2022-10-17T16:41:33.687Z,20.30
2022-10-17T16:44:03.241Z,20.30
2022-10-17T16:46:35.599Z,20.30
2022-10-17T16:49:05.024Z,20.30
2022-10-17T16:51:35.883Z,20.30
2022-10-17T16:54:04.533Z,20.30
2022-10-17T16:56:32.926Z,20.30
2022-10-17T16:59:01.102Z,20.30
2022-10-17T17:01:31.920Z,20.30
2022-10-17T17:03:59.393Z,20.20
2022-10-17T17:06:31.417Z,20.10
2022-10-17T17:08:59.437Z,20.10
2022-10-17T17:11:28.528Z,20.20
2022-10-17T17:13:57.587Z,20.10
2022-10-17T17:16:29.178Z,20.10
2022-10-17T17:19:02.261Z,20.00
2022-10-17T17:21:30.100Z,19.90
2022-10-17T17:23:59.818Z,19.80
2022-10-17T17:26:29.391Z,19.80
2022-10-17T17:28:59.162Z,19.70
2022-10-17T17:31:30.487Z,19.70
2022-10-17T17:34:00.484Z,19.80
2022-10-17T17:36:31.672Z,19.70
2022-10-17T17:39:04.077Z,19.60
2022-10-17T17:41:31.723Z,19.60
2022-10-17T17:43:58.992Z,19.60
2022-10-17T17:46:28.686Z,19.60
2022-10-17T17:48:56.088Z,19.50
2022-10-17T17:51:29.483Z,19.50
2022-10-17T17:53:57.986Z,19.40
2022-10-17T17:56:30.696Z,19.40
2022-10-17T17:59:00.925Z,19.30
2022-10-17T18:01:35.100Z,19.20
2022-10-17T18:04:03.814Z,19.20
2022-10-17T18:06:31.308Z,19.20
2022-10-17T18:08:59.484Z,19.20
2022-10-17T18:11:27.639Z,19.20
2022-10-17T18:14:00.001Z,19.20
2022-10-17T18:16:28.657Z,19.20
2022-10-17T18:18:56.451Z,19.30
2022-10-17T18:21:24.828Z,19.30
2022-10-17T18:23:52.687Z,19.20
2022-10-17T18:26:20.451Z,19.30
2022-10-17T18:28:48.300Z,19.20
2022-10-17T18:31:24.431Z,19.20
2022-10-17T18:33:53.183Z,19.10
2022-10-17T18:36:26.051Z,19.10
2022-10-17T18:38:54.931Z,19.10
2022-10-17T18:41:24.918Z,19.10
2022-10-17T18:43:56.048Z,19.00
2022-10-17T18:46:28.973Z,19.00
2022-10-17T18:48:59.177Z,18.90
2022-10-17T18:51:26.596Z,19.00
2022-10-17T18:53:55.912Z,19.00
2022-10-17T18:56:26.291Z,18.90
2022-10-17T18:58:54.123Z,18.80
2022-10-17T19:01:28.782Z,18.80
2022-10-17T19:04:00.504Z,18.80
2022-10-17T19:06:32.055Z,18.80
2022-10-17T19:09:01.838Z,18.70
2022-10-17T19:11:31.531Z,18.80
2022-10-17T19:14:06.023Z,18.90
2022-10-17T19:16:35.650Z,18.90
2022-10-17T19:19:17.355Z,18.80
2022-10-17T19:21:49.368Z,18.90
2022-10-17T19:24:19.157Z,18.90
2022-10-17T19:26:47.826Z,18.90
2022-10-17T19:29:18.276Z,18.90
2022-10-17T19:31:52.916Z,18.90
2022-10-17T19:34:20.426Z,18.90
2022-10-17T19:36:48.297Z,19.00
2022-10-17T19:39:20.388Z,19.00
2022-10-17T19:41:48.671Z,18.90
2022-10-17T19:44:16.799Z,19.00
2022-10-17T19:46:49.355Z,18.90
2022-10-17T19:49:17.229Z,18.90
2022-10-17T19:51:44.496Z,19.00
2022-10-17T19:54:12.322Z,19.00
2022-10-17T19:56:40.346Z,19.00
2022-10-17T19:59:08.541Z,19.00
2022-10-17T20:01:41.070Z,18.90
2022-10-17T20:04:12.520Z,18.90
2022-10-17T20:06:41.237Z,18.90
2022-10-17T20:09:12.483Z,19.00
2022-10-17T20:11:45.238Z,19.10
2022-10-17T20:14:12.454Z,19.10
2022-10-17T20:16:40.198Z,19.00
2022-10-17T20:19:10.892Z,19.10
2022-10-17T20:21:42.161Z,19.10
2022-10-17T20:24:14.005Z,19.10
2022-10-17T20:26:44.888Z,19.20
2022-10-17T20:29:19.427Z,19.20
2022-10-17T20:31:49.857Z,19.10
2022-10-17T20:34:19.190Z,19.20
2022-10-17T20:36:47.764Z,19.20
2022-10-17T20:39:21.159Z,19.20
2022-10-17T20:41:53.179Z,19.20
2022-10-17T20:44:20.413Z,19.20
2022-10-17T20:47:01.051Z,19.10
2022-10-17T20:49:32.430Z,19.10
2022-10-17T20:52:01.103Z,19.00
2022-10-17T20:54:29.188Z,19.00
2022-10-17T20:57:01.126Z,19.10
2022-10-17T20:59:36.049Z,19.10
2022-10-17T21:02:05.350Z,19.10
2022-10-17T21:04:52.518Z,19.10
2022-10-17T21:07:19.775Z,19.10
2022-10-17T21:09:47.619Z,19.10
2022-10-17T21:12:21.887Z,19.20
2022-10-17T21:15:01.483Z,19.20
2022-10-17T21:17:29.175Z,19.20
2022-10-17T21:19:59.297Z,19.20
2022-10-17T21:22:26.586Z,19.20
2022-10-17T21:24:53.793Z,19.20
2022-10-17T21:27:21.090Z,19.20
2022-10-17T21:29:49.485Z,19.10
2022-10-17T21:32:31.995Z,19.10
2022-10-17T21:35:07.020Z,19.10
2022-10-17T21:37:34.227Z,19.10
2022-10-17T21:40:07.992Z,19.10
2022-10-17T21:42:37.493Z,19.10
2022-10-17T21:45:15.369Z,19.10
2022-10-17T21:48:11.286Z,19.10
2022-10-17T21:50:35.132Z,19.20
2022-10-17T21:53:04.864Z,19.20
2022-10-17T21:55:32.725Z,19.10
2022-10-17T21:58:00.402Z,19.10
2022-10-17T22:00:28.117Z,19.10
2022-10-17T22:02:57.474Z,19.10
2022-10-17T22:05:24.785Z,19.10
2022-10-17T22:07:52.404Z,19.10
2022-10-17T22:10:21.869Z,19.10
2022-10-17T22:12:49.066Z,19.10
2022-10-17T22:15:16.246Z,19.10
2022-10-17T22:17:43.450Z,19.00
2022-10-17T22:20:13.049Z,19.00
2022-10-17T22:22:40.667Z,19.00
2022-10-17T22:25:11.309Z,19.10
2022-10-17T22:27:40.700Z,19.10
2022-10-17T22:30:08.535Z,19.10
2022-10-17T22:32:36.215Z,19.10
2022-10-17T22:35:03.557Z,19.10
2022-10-17T22:37:30.906Z,19.10
2022-10-17T22:39:58.326Z,19.10
2022-10-17T22:42:34.468Z,19.00
2022-10-17T22:45:04.393Z,19.00
2022-10-17T22:47:32.356Z,19.00
2022-10-17T22:50:02.548Z,19.00
2022-10-17T22:52:30.062Z,19.00
2022-10-17T22:54:57.998Z,19.00
2022-10-17T22:57:25.212Z,19.00
2022-10-17T22:59:52.448Z,19.00
2022-10-17T23:02:19.666Z,19.00
2022-10-17T23:04:47.319Z,19.00
2022-10-17T23:07:15.083Z,19.00
2022-10-17T23:09:42.279Z,19.00
2022-10-17T23:12:10.104Z,19.00
2022-10-17T23:14:43.542Z,19.00
2022-10-17T23:17:13.450Z,19.10
2022-10-17T23:19:43.204Z,19.10
2022-10-17T23:22:10.902Z,19.10
2022-10-17T23:24:38.093Z,19.00
2022-10-17T23:27:05.302Z,19.00
2022-10-17T23:29:35.716Z,19.00
2022-10-17T23:32:02.968Z,19.00
2022-10-17T23:34:32.684Z,19.00
2022-10-17T23:36:59.875Z,19.00
2022-10-17T23:39:27.075Z,19.00
2022-10-17T23:41:54.265Z,19.00
2022-10-17T23:44:22.481Z,18.90
2022-10-17T23:46:51.828Z,18.90
2022-10-17T23:49:21.150Z,18.90
2022-10-17T23:51:48.356Z,18.90
2022-10-17T23:54:15.654Z,18.90
2022-10-17T23:56:43.403Z,18.90
2022-10-17T23:59:10.662Z,18.90
